Time;durP1;ratioP1;P1;durP2;ratioP2;P2;SDS_P1;SDS_P2;PMS_P1;PMS_P2;Temp;Humidity;BMP_temperature;BMP_pressure;BME280_temperature;BME280_humidity;BME280_pressure;Samples;Min_cycle;Max_cycle;Signal;HPM_P1;HPM_P2
2024/04/15 00:01:03;;;;;;;7.18;2.40;;;;;;;;;;5358910;26;20015;-79
2024/04/15 00:03:28;;;;;;;6.80;1.90;;;;;;;;;;5369367;26;20011;-80
2024/04/15 00:05:54;;;;;;;6.72;1.90;;;;;;;;;;5359173;26;20008;-80
2024/04/15 00:08:19;;;;;;;5.63;1.75;;;;;;;;;;5344365;26;20008;-80
2024/04/15 00:10:45;;;;;;;7.32;1.80;;;;;;;;;;5370161;26;19996;-80
2024/04/15 00:13:10;;;;;;;4.47;1.70;;;;;;;;;;5339906;26;20078;-80
2024/04/15 00:15:36;;;;;;;5.93;2.00;;;;;;;;;;5360289;26;20004;-80
2024/04/15 00:18:01;;;;;;;5.47;1.85;;;;;;;;;;5359676;26;20242;-80
2024/04/15 00:20:29;;;;;;;4.30;1.77;;;;;;;;;;5339164;26;20008;-80
2024/04/15 00:22:55;;;;;;;6.93;2.08;;;;;;;;;;5341059;26;20019;-80
2024/04/15 00:25:21;;;;;;;8.95;2.10;;;;;;;;;;5336856;26;20005;-80
2024/04/15 00:27:46;;;;;;;6.00;1.83;;;;;;;;;;5365582;26;20001;-80
2024/04/15 00:30:11;;;;;;;7.85;2.38;;;;;;;;;;5362663;26;20004;-80
2024/04/15 00:32:37;;;;;;;6.47;2.20;;;;;;;;;;5341268;26;20005;-80
2024/04/15 00:35:02;;;;;;;8.77;2.83;;;;;;;;;;5356538;26;20004;-80
2024/04/15 00:37:28;;;;;;;4.10;1.90;;;;;;;;;;5360071;26;20008;-80
2024/04/15 00:39:55;;;;;;;5.22;1.80;;;;;;;;;;5339838;26;20012;-80
2024/04/15 00:42:20;;;;;;;4.18;1.77;;;;;;;;;;5339379;26;20000;-80
2024/04/15 00:44:45;;;;;;;6.93;2.40;;;;;;;;;;5338477;26;20013;-84
2024/04/15 00:47:11;;;;;;;8.38;1.88;;;;;;;;;;5338147;26;20472;-84
2024/04/15 00:49:37;;;;;;;5.00;1.92;;;;;;;;;;5339868;26;20101;-84
2024/04/15 00:52:04;;;;;;;7.25;2.00;;;;;;;;;;5341700;26;19996;-85
2024/04/15 00:54:32;;;;;;;7.68;2.05;;;;;;;;;;5342083;26;20068;-84
2024/04/15 00:56:59;;;;;;;6.07;2.20;;;;;;;;;;5363550;26;20082;-83
2024/04/15 00:59:25;;;;;;;4.90;1.95;;;;;;;;;;5340994;26;20008;-85
2024/04/15 01:01:52;;;;;;;6.10;2.03;;;;;;;;;;5335378;26;20230;-79
2024/04/15 01:04:18;;;;;;;5.70;2.22;;;;;;;;;;5340965;26;20014;-79
2024/04/15 01:06:45;;;;;;;6.78;2.55;;;;;;;;;;5341864;26;20001;-80
2024/04/15 01:09:10;;;;;;;9.18;2.58;;;;;;;;;;5362686;26;20011;-80
2024/04/15 01:11:36;;;;;;;8.75;2.25;;;;;;;;;;5335102;26;20382;-79
2024/04/15 01:14:02;;;;;;;5.65;2.05;;;;;;;;;;5336521;26;20011;-80
2024/04/15 01:16:38;;;;;;;6.22;2.47;;;;;;;;;;5359176;26;20009;-80
2024/04/15 01:19:04;;;;;;;8.48;2.15;;;;;;;;;;5340518;26;20007;-80
2024/04/15 01:21:30;;;;;;;6.20;2.38;;;;;;;;;;5374372;26;20000;-80
2024/04/15 01:24:02;;;;;;;6.22;2.40;;;;;;;;;;5340476;26;20015;-79
2024/04/15 01:26:29;;;;;;;6.63;2.40;;;;;;;;;;5339722;26;20005;-79
2024/04/15 01:28:55;;;;;;;7.68;2.63;;;;;;;;;;5357681;26;20008;-79
2024/04/15 01:31:21;;;;;;;7.03;2.85;;;;;;;;;;5364443;26;20091;-80
2024/04/15 01:33:47;;;;;;;6.88;2.70;;;;;;;;;;5339687;26;20015;-79
2024/04/15 01:36:13;;;;;;;6.65;3.20;;;;;;;;;;5354770;26;20082;-80
2024/04/15 01:38:38;;;;;;;6.00;2.95;;;;;;;;;;5338564;26;20000;-80
2024/04/15 01:41:03;;;;;;;7.00;2.90;;;;;;;;;;5362287;26;20042;-79
2024/04/15 01:43:29;;;;;;;5.72;2.88;;;;;;;;;;5340057;26;20051;-79
2024/04/15 01:45:54;;;;;;;7.20;3.03;;;;;;;;;;5342535;26;20499;-80
2024/04/15 01:48:20;;;;;;;5.35;2.55;;;;;;;;;;5359430;26;20001;-80
2024/04/15 01:50:45;;;;;;;6.55;3.20;;;;;;;;;;5340054;26;20004;-79
2024/04/15 01:53:11;;;;;;;8.25;3.08;;;;;;;;;;5356912;26;20022;-80
2024/04/15 01:55:38;;;;;;;6.05;2.72;;;;;;;;;;5357337;26;20071;-80
2024/04/15 01:58:04;;;;;;;7.53;3.10;;;;;;;;;;5338859;26;20000;-80
2024/04/15 02:00:29;;;;;;;7.25;2.95;;;;;;;;;;5338779;26;20011;-79
2024/04/15 02:02:55;;;;;;;6.30;2.92;;;;;;;;;;5356998;26;20078;-80
2024/04/15 02:05:20;;;;;;;8.27;2.92;;;;;;;;;;5363979;26;20004;-80
2024/04/15 02:07:47;;;;;;;8.48;3.10;;;;;;;;;;5336128;26;20071;-79
2024/04/15 02:10:12;;;;;;;6.90;2.95;;;;;;;;;;5358177;26;20024;-80
2024/04/15 02:12:38;;;;;;;7.13;3.20;;;;;;;;;;5360230;26;20073;-79
2024/04/15 02:15:03;;;;;;;9.52;3.20;;;;;;;;;;5357126;26;20535;-84
2024/04/15 02:17:29;;;;;;;6.65;2.88;;;;;;;;;;5337299;26;20011;-84
2024/04/15 02:19:54;;;;;;;8.40;3.40;;;;;;;;;;5364261;26;20009;-84
2024/04/15 02:22:19;;;;;;;7.55;2.85;;;;;;;;;;5371706;26;20455;-84
2024/04/15 02:24:45;;;;;;;8.02;2.95;;;;;;;;;;5355663;26;20128;-83
2024/04/15 02:27:10;;;;;;;12.57;3.50;;;;;;;;;;5357309;26;20005;-84
2024/04/15 02:29:36;;;;;;;6.05;3.30;;;;;;;;;;5366009;26;19996;-83
2024/04/15 02:32:01;;;;;;;6.28;3.20;;;;;;;;;;5362473;26;19996;-84
2024/04/15 02:34:27;;;;;;;8.10;3.38;;;;;;;;;;5335537;26;20004;-83
2024/04/15 02:36:52;;;;;;;8.57;3.35;;;;;;;;;;5333210;26;20395;-85
2024/04/15 02:39:18;;;;;;;7.45;3.30;;;;;;;;;;5338865;26;19993;-85
2024/04/15 02:41:43;;;;;;;8.63;3.55;;;;;;;;;;5362905;26;20339;-83
2024/04/15 02:44:09;;;;;;;8.13;3.47;;;;;;;;;;5340269;26;20104;-84
2024/04/15 02:46:34;;;;;;;7.10;2.60;;;;;;;;;;5339467;26;20481;-84
2024/04/15 02:48:59;;;;;;;7.40;3.13;;;;;;;;;;5339753;26;20008;-84
2024/04/15 02:51:26;;;;;;;9.88;2.88;;;;;;;;;;5356437;26;20390;-84
2024/04/15 02:53:51;;;;;;;6.82;2.80;;;;;;;;;;5337109;26;20004;-85
2024/04/15 02:56:17;;;;;;;6.80;2.80;;;;;;;;;;5337223;26;20023;-84
2024/04/15 02:58:42;;;;;;;8.07;2.70;;;;;;;;;;5335542;26;20349;-85
2024/04/15 03:01:07;;;;;;;9.07;3.28;;;;;;;;;;5337000;26;20816;-84
2024/04/15 03:03:33;;;;;;;7.88;3.00;;;;;;;;;;5337538;26;20095;-84
2024/04/15 03:05:58;;;;;;;8.02;3.17;;;;;;;;;;5355381;26;20012;-83
2024/04/15 03:08:24;;;;;;;5.60;2.95;;;;;;;;;;5342895;26;20069;-83
2024/04/15 03:10:49;;;;;;;7.50;3.13;;;;;;;;;;5340025;26;20740;-84
2024/04/15 03:13:14;;;;;;;6.95;2.55;;;;;;;;;;5338920;26;19993;-84
2024/04/15 03:15:40;;;;;;;10.23;3.35;;;;;;;;;;5358967;26;20554;-84
2024/04/15 03:18:05;;;;;;;5.65;2.83;;;;;;;;;;5341995;26;20011;-85
2024/04/15 03:20:31;;;;;;;7.88;2.90;;;;;;;;;;5362009;26;20004;-85
2024/04/15 03:22:56;;;;;;;6.60;2.70;;;;;;;;;;5338318;26;20401;-84
2024/04/15 03:25:22;;;;;;;8.68;2.80;;;;;;;;;;5342559;26;20081;-84
2024/04/15 03:27:48;;;;;;;7.68;2.50;;;;;;;;;;5337703;26;20074;-84
2024/04/15 03:30:14;;;;;;;7.43;2.80;;;;;;;;;;5338083;26;20467;-85
2024/04/15 03:32:40;;;;;;;6.85;2.70;;;;;;;;;;5364501;26;20013;-84
2024/04/15 03:35:11;;;;;;;7.07;2.58;;;;;;;;;;5340303;26;20020;-84
2024/04/15 03:37:36;;;;;;;7.38;2.80;;;;;;;;;;5343825;26;20000;-84
2024/04/15 03:40:02;;;;;;;7.93;2.50;;;;;;;;;;5363399;26;20011;-83
2024/04/15 03:42:27;;;;;;;7.80;2.33;;;;;;;;;;5339932;26;20023;-84
2024/04/15 03:44:54;;;;;;;5.68;2.55;;;;;;;;;;5340133;26;20050;-84
2024/04/15 03:47:20;;;;;;;8.73;2.97;;;;;;;;;;5341682;26;20004;-84
2024/04/15 03:49:45;;;;;;;7.93;2.60;;;;;;;;;;5365907;26;19997;-84
2024/04/15 03:52:11;;;;;;;6.05;2.28;;;;;;;;;;5353242;26;20009;-84
2024/04/15 03:54:38;;;;;;;8.48;2.45;;;;;;;;;;5356582;26;20004;-83
2024/04/15 03:57:04;;;;;;;7.82;2.40;;;;;;;;;;5335334;26;20074;-84
2024/04/15 03:59:29;;;;;;;8.20;2.72;;;;;;;;;;5362869;26;20012;-83
2024/04/15 04:01:54;;;;;;;7.22;2.33;;;;;;;;;;5339619;26;20015;-83
2024/04/15 04:04:20;;;;;;;9.18;2.40;;;;;;;;;;5339433;26;19996;-83
2024/04/15 04:06:45;;;;;;;8.00;2.55;;;;;;;;;;5340762;26;20077;-83
2024/04/15 04:09:10;;;;;;;8.40;2.60;;;;;;;;;;5361398;26;20357;-83
2024/04/15 04:11:36;;;;;;;7.57;2.47;;;;;;;;;;5337857;26;20015;-83
2024/04/15 04:14:01;;;;;;;8.23;2.60;;;;;;;;;;5339964;26;19992;-84
2024/04/15 04:16:27;;;;;;;10.27;3.22;;;;;;;;;;5339057;26;20004;-84
2024/04/15 04:18:52;;;;;;;8.25;2.38;;;;;;;;;;5354901;26;20082;-83
2024/04/15 04:21:18;;;;;;;9.35;2.70;;;;;;;;;;5361410;26;20000;-83
2024/04/15 04:23:43;;;;;;;10.45;2.60;;;;;;;;;;5343678;26;20000;-84
2024/04/15 04:26:08;;;;;;;11.82;3.53;;;;;;;;;;5336039;26;20005;-83
2024/04/15 04:28:34;;;;;;;5.57;2.35;;;;;;;;;;5354773;26;20032;-83
2024/04/15 04:31:03;;;;;;;8.88;2.85;;;;;;;;;;5368956;26;20053;-84
2024/04/15 04:33:29;;;;;;;9.32;2.45;;;;;;;;;;5341050;26;20085;-84
2024/04/15 04:35:55;;;;;;;7.68;2.28;;;;;;;;;;5357578;26;20023;-83
2024/04/15 04:38:20;;;;;;;5.97;2.42;;;;;;;;;;5364143;26;20001;-82
2024/04/15 04:40:46;;;;;;;7.18;2.35;;;;;;;;;;5357416;26;20011;-84
2024/04/15 04:43:11;;;;;;;7.15;2.58;;;;;;;;;;5364568;26;20481;-84
2024/04/15 04:45:37;;;;;;;9.15;2.60;;;;;;;;;;5360971;26;20009;-84
2024/04/15 04:48:02;;;;;;;8.25;2.45;;;;;;;;;;5360207;26;20015;-83
2024/04/15 04:50:28;;;;;;;8.60;2.50;;;;;;;;;;5334956;26;19996;-83
2024/04/15 04:52:53;;;;;;;6.57;2.55;;;;;;;;;;5363758;26;20048;-83
2024/04/15 04:55:18;;;;;;;11.00;2.92;;;;;;;;;;5361809;26;20012;-83
2024/04/15 04:57:44;;;;;;;7.07;2.65;;;;;;;;;;5341046;26;19997;-83
2024/04/15 05:00:10;;;;;;;9.40;2.60;;;;;;;;;;5339072;26;20462;-84
2024/04/15 05:02:35;;;;;;;7.60;2.58;;;;;;;;;;5336186;26;20008;-84
2024/04/15 05:05:00;;;;;;;8.38;2.40;;;;;;;;;;5354205;26;20413;-82
2024/04/15 05:07:26;;;;;;;7.85;2.33;;;;;;;;;;5340826;26;20459;-84
2024/04/15 05:09:51;;;;;;;6.38;2.20;;;;;;;;;;5341177;26;20007;-83
2024/04/15 05:12:16;;;;;;;8.35;2.45;;;;;;;;;;5357233;26;20077;-83
2024/04/15 05:14:42;;;;;;;8.00;2.38;;;;;;;;;;5357782;26;20003;-84
2024/04/15 05:17:09;;;;;;;11.55;2.47;;;;;;;;;;5358239;26;20667;-84
2024/04/15 05:19:34;;;;;;;9.00;2.35;;;;;;;;;;5356500;26;20467;-83
2024/04/15 05:21:59;;;;;;;9.38;2.75;;;;;;;;;;5366819;26;20004;-83
2024/04/15 05:24:25;;;;;;;10.55;2.60;;;;;;;;;;5338763;26;20011;-83
2024/04/15 05:26:50;;;;;;;8.00;2.20;;;;;;;;;;5361316;26;20036;-83
2024/04/15 05:29:16;;;;;;;6.68;2.30;;;;;;;;;;5336390;26;20535;-83
2024/04/15 05:31:41;;;;;;;7.82;2.50;;;;;;;;;;5359691;26;20837;-83
2024/04/15 05:34:06;;;;;;;12.40;2.85;;;;;;;;;;5356685;26;19996;-83
2024/04/15 05:36:32;;;;;;;9.63;2.83;;;;;;;;;;5356407;26;20029;-83
2024/04/15 05:38:57;;;;;;;7.70;2.42;;;;;;;;;;5338960;26;19993;-83
2024/04/15 05:41:23;;;;;;;5.85;2.40;;;;;;;;;;5330298;26;20004;-83
2024/04/15 05:43:48;;;;;;;7.72;2.53;;;;;;;;;;5363381;26;19997;-83
2024/04/15 05:46:13;;;;;;;9.25;2.40;;;;;;;;;;5337881;26;20458;-83
2024/04/15 05:48:39;;;;;;;7.72;2.30;;;;;;;;;;5334363;26;20033;-83
2024/04/15 05:51:04;;;;;;;6.47;2.55;;;;;;;;;;5346115;26;20004;-84
2024/04/15 05:53:30;;;;;;;8.07;2.70;;;;;;;;;;5365796;26;20012;-79
2024/04/15 05:55:56;;;;;;;7.28;2.90;;;;;;;;;;5341266;26;20001;-79
2024/04/15 05:58:22;;;;;;;9.25;2.70;;;;;;;;;;5348209;26;20004;-79
2024/04/15 06:00:47;;;;;;;7.43;2.47;;;;;;;;;;5349239;26;20046;-79
2024/04/15 06:03:13;;;;;;;9.77;2.47;;;;;;;;;;5348145;26;20012;-79
2024/04/15 06:05:38;;;;;;;11.80;3.20;;;;;;;;;;5350085;26;20473;-79
2024/04/15 06:08:04;;;;;;;9.35;3.10;;;;;;;;;;5349048;26;19996;-79
2024/04/15 06:10:29;;;;;;;7.15;2.60;;;;;;;;;;5347685;26;20014;-79
2024/04/15 06:12:55;;;;;;;10.70;2.90;;;;;;;;;;5380529;26;20454;-79
2024/04/15 06:15:20;;;;;;;10.60;2.92;;;;;;;;;;5378596;26;20008;-79
2024/04/15 06:17:46;;;;;;;10.57;2.97;;;;;;;;;;5349444;26;20461;-79
2024/04/15 06:20:11;;;;;;;7.55;2.67;;;;;;;;;;5379968;26;20000;-79
2024/04/15 06:22:37;;;;;;;10.50;2.85;;;;;;;;;;5347628;26;20004;-79
2024/04/15 06:25:03;;;;;;;13.70;2.72;;;;;;;;;;5380238;26;20451;-79
2024/04/15 06:27:30;;;;;;;9.48;3.08;;;;;;;;;;5376928;26;20004;-79
2024/04/15 06:29:55;;;;;;;8.77;2.65;;;;;;;;;;5380047;26;20018;-79
2024/04/15 06:32:20;;;;;;;7.95;2.65;;;;;;;;;;5379409;26;19996;-79
2024/04/15 06:34:46;;;;;;;10.07;2.80;;;;;;;;;;5348545;26;20472;-79
2024/04/15 06:37:12;;;;;;;9.13;3.10;;;;;;;;;;5379439;26;20011;-79
2024/04/15 06:39:37;;;;;;;10.75;2.80;;;;;;;;;;5356607;26;20000;-78
2024/04/15 06:42:03;;;;;;;9.13;3.00;;;;;;;;;;5380004;26;20357;-79
2024/04/15 06:44:31;;;;;;;12.02;3.70;;;;;;;;;;5382090;26;20008;-79
2024/04/15 06:46:56;;;;;;;27.33;6.35;;;;;;;;;;5377521;26;20019;-79
2024/04/15 06:49:22;;;;;;;17.58;4.40;;;;;;;;;;5351505;26;20011;-79
2024/04/15 06:51:47;;;;;;;11.60;3.35;;;;;;;;;;5378922;26;20073;-79
2024/04/15 06:54:13;;;;;;;41.15;5.90;;;;;;;;;;5382141;26;20336;-79
2024/04/15 06:56:38;;;;;;;15.80;4.60;;;;;;;;;;5382143;26;20004;-80
2024/04/15 06:59:03;;;;;;;14.45;4.32;;;;;;;;;;5381279;26;20340;-79
2024/04/15 07:01:29;;;;;;;20.85;4.45;;;;;;;;;;5379198;26;20004;-79
2024/04/15 07:03:55;;;;;;;13.15;2.85;;;;;;;;;;5349358;26;20072;-83
2024/04/15 07:06:22;;;;;;;9.63;2.80;;;;;;;;;;5378378;26;20019;-83
2024/04/15 07:08:47;;;;;;;20.05;3.58;;;;;;;;;;5348138;26;20004;-83
2024/04/15 07:11:13;;;;;;;12.20;3.35;;;;;;;;;;5348915;26;20019;-82
2024/04/15 07:13:38;;;;;;;11.63;2.75;;;;;;;;;;5350540;26;20007;-82
2024/04/15 07:16:04;;;;;;;8.43;2.55;;;;;;;;;;5338724;26;20370;-83
2024/04/15 07:18:29;;;;;;;7.68;2.53;;;;;;;;;;5381087;26;20023;-82
2024/04/15 07:20:55;;;;;;;8.35;2.40;;;;;;;;;;5382558;26;20040;-82
2024/04/15 07:23:20;;;;;;;11.52;3.13;;;;;;;;;;5383070;26;20000;-83
2024/04/15 07:25:45;;;;;;;9.05;2.90;;;;;;;;;;5344963;26;20001;-83
2024/04/15 07:28:11;;;;;;;11.35;3.65;;;;;;;;;;5379498;26;20051;-83
2024/04/15 07:30:36;;;;;;;9.98;3.03;;;;;;;;;;5351841;26;20011;-82
2024/04/15 07:33:03;;;;;;;9.27;2.95;;;;;;;;;;5351238;26;20029;-81
2024/04/15 07:35:30;;;;;;;13.27;3.28;;;;;;;;;;5383031;26;20000;-83
2024/04/15 07:37:55;;;;;;;6.85;3.05;;;;;;;;;;5349809;26;20012;-82
2024/04/15 07:40:21;;;;;;;11.32;3.30;;;;;;;;;;5382947;26;20438;-82
2024/04/15 07:42:46;;;;;;;8.35;3.28;;;;;;;;;;5350521;26;20032;-82
2024/04/15 07:45:12;;;;;;;12.68;3.60;;;;;;;;;;5382741;26;20019;-82
2024/04/15 07:47:37;;;;;;;10.75;4.13;;;;;;;;;;5345983;26;20001;-83
2024/04/15 07:50:03;;;;;;;8.95;3.22;;;;;;;;;;5371293;26;20513;-84
2024/04/15 07:52:28;;;;;;;7.97;3.60;;;;;;;;;;5378711;26;20458;-83
2024/04/15 07:54:54;;;;;;;6.43;3.03;;;;;;;;;;5352140;26;20000;-82
2024/04/15 07:57:20;;;;;;;8.98;3.45;;;;;;;;;;5380571;26;20000;-82
2024/04/15 07:59:46;;;;;;;8.52;3.63;;;;;;;;;;5371890;26;19996;-83
2024/04/15 08:02:12;;;;;;;10.65;3.78;;;;;;;;;;5344282;26;20332;-83
2024/04/15 08:04:37;;;;;;;8.65;4.05;;;;;;;;;;5370822;26;20074;-82
2024/04/15 08:07:03;;;;;;;11.35;4.57;;;;;;;;;;5351184;26;20024;-83
2024/04/15 08:09:29;;;;;;;7.85;4.15;;;;;;;;;;5382160;26;20007;-83
2024/04/15 08:11:55;;;;;;;8.73;4.35;;;;;;;;;;5346140;26;20004;-83
2024/04/15 08:14:21;;;;;;;9.65;4.07;;;;;;;;;;5351064;26;20066;-80
2024/04/15 08:16:46;;;;;;;8.98;4.28;;;;;;;;;;5348630;26;20016;-80
2024/04/15 08:19:11;;;;;;;10.50;3.88;;;;;;;;;;5381978;26;20004;-80
2024/04/15 08:21:37;;;;;;;8.88;4.10;;;;;;;;;;5349155;26;20007;-80
2024/04/15 08:24:03;;;;;;;9.55;4.35;;;;;;;;;;5382027;26;20007;-80
2024/04/15 08:26:28;;;;;;;9.90;3.78;;;;;;;;;;5350077;26;20405;-80
2024/04/15 08:28:53;;;;;;;8.70;3.67;;;;;;;;;;5381189;26;20353;-80
2024/04/15 08:31:19;;;;;;;9.93;3.47;;;;;;;;;;5382362;26;19996;-80
2024/04/15 08:33:44;;;;;;;9.40;3.72;;;;;;;;;;5380445;26;20399;-81
2024/04/15 08:36:12;;;;;;;11.05;4.05;;;;;;;;;;5350125;26;20470;-80
2024/04/15 08:38:40;;;;;;;7.47;3.40;;;;;;;;;;5382172;26;20011;-80
2024/04/15 08:41:10;;;;;;;7.07;3.08;;;;;;;;;;5351169;26;20000;-80
2024/04/15 08:43:36;;;;;;;9.88;3.28;;;;;;;;;;5380859;26;20023;-80
2024/04/15 08:46:04;;;;;;;7.72;3.22;;;;;;;;;;5349905;26;20066;-80
2024/04/15 08:48:32;;;;;;;9.57;2.97;;;;;;;;;;5382127;26;20033;-80
2024/04/15 08:50:59;;;;;;;9.85;3.50;;;;;;;;;;5381069;26;20016;-81
2024/04/15 08:53:25;;;;;;;7.65;3.50;;;;;;;;;;5376708;26;20008;-80
2024/04/15 08:55:51;;;;;;;8.45;3.30;;;;;;;;;;5352553;26;20404;-80
2024/04/15 08:58:16;;;;;;;12.98;3.63;;;;;;;;;;5349320;26;20011;-79
2024/04/15 09:00:44;;;;;;;11.10;3.92;;;;;;;;;;5342151;26;20381;-79
2024/04/15 09:03:11;;;;;;;14.15;3.30;;;;;;;;;;5355353;26;20070;-80
2024/04/15 09:05:36;;;;;;;15.20;3.22;;;;;;;;;;5365883;26;20006;-79
2024/04/15 09:08:02;;;;;;;24.10;3.20;;;;;;;;;;5382067;26;20004;-80
2024/04/15 09:10:27;;;;;;;8.23;2.67;;;;;;;;;;5378327;26;20004;-80
2024/04/15 09:12:55;;;;;;;7.82;2.70;;;;;;;;;;5374609;26;20454;-81
2024/04/15 09:15:21;;;;;;;6.90;2.45;;;;;;;;;;5358983;26;20004;-80
2024/04/15 09:17:47;;;;;;;10.80;3.22;;;;;;;;;;5381620;26;20011;-80
2024/04/15 09:20:13;;;;;;;5.18;2.10;;;;;;;;;;5350954;26;20629;-80
2024/04/15 09:22:39;;;;;;;6.85;2.40;;;;;;;;;;5350659;26;20000;-80
2024/04/15 09:25:08;;;;;;;13.55;3.00;;;;;;;;;;5351042;26;20351;-86
2024/04/15 09:27:33;;;;;;;7.32;2.30;;;;;;;;;;5348565;26;20008;-85
2024/04/15 09:29:59;;;;;;;7.78;2.60;;;;;;;;;;5350549;26;20000;-85
2024/04/15 09:32:25;;;;;;;7.03;2.13;;;;;;;;;;5347336;26;20005;-85
2024/04/15 09:35:00;;;;;;;7.20;2.10;;;;;;;;;;5380699;26;20000;-85
2024/04/15 09:37:26;;;;;;;7.38;1.90;;;;;;;;;;5379785;26;19996;-84
2024/04/15 09:39:52;;;;;;;6.18;1.77;;;;;;;;;;5350051;26;20011;-83
2024/04/15 09:42:19;;;;;;;5.55;1.63;;;;;;;;;;5380644;26;20008;-85
2024/04/15 09:44:46;;;;;;;8.45;3.00;;;;;;;;;;5380322;26;20004;-83
2024/04/15 09:47:16;;;;;;;5.10;1.67;;;;;;;;;;5349864;26;20015;-85
2024/04/15 09:49:42;;;;;;;5.88;1.75;;;;;;;;;;5377398;26;20016;-83
2024/04/15 09:52:18;;;;;;;5.55;1.70;;;;;;;;;;5344022;26;20028;-85
2024/04/15 09:54:45;;;;;;;5.93;1.88;;;;;;;;;;5380996;26;19997;-85
2024/04/15 09:57:14;;;;;;;5.80;2.10;;;;;;;;;;5378281;26;20000;-84
2024/04/15 09:59:44;;;;;;;7.30;2.20;;;;;;;;;;5349559;26;20383;-84
2024/04/15 10:02:24;;;;;;;6.93;1.80;;;;;;;;;;5376074;26;19996;-85
2024/04/15 10:04:55;;;;;;;8.82;2.00;;;;;;;;;;5350207;26;20048;-86
2024/04/15 10:07:21;;;;;;;6.68;1.70;;;;;;;;;;5350586;26;20077;-86
2024/04/15 10:09:48;;;;;;;7.15;2.10;;;;;;;;;;5345990;26;20009;-84
2024/04/15 10:12:15;;;;;;;5.45;1.80;;;;;;;;;;5371957;26;20044;-85
2024/04/15 10:14:41;;;;;;;8.70;1.88;;;;;;;;;;5381188;26;20459;-84
2024/04/15 10:17:08;;;;;;;6.00;1.80;;;;;;;;;;5348969;26;20015;-84
2024/04/15 10:19:34;;;;;;;7.15;1.58;;;;;;;;;;5380164;26;20007;-84
2024/04/15 10:22:01;;;;;;;6.30;1.75;;;;;;;;;;5349637;26;20342;-83
2024/04/15 10:24:26;;;;;;;6.32;1.63;;;;;;;;;;5363196;26;20000;-86
2024/04/15 10:26:52;;;;;;;5.47;1.73;;;;;;;;;;5344983;26;20526;-85
2024/04/15 10:29:20;;;;;;;5.43;1.92;;;;;;;;;;5379319;26;20000;-85
2024/04/15 10:31:56;;;;;;;8.63;1.70;;;;;;;;;;5379017;26;20011;-85
2024/04/15 10:34:23;;;;;;;6.00;1.65;;;;;;;;;;5347752;26;20489;-84
2024/04/15 10:36:54;;;;;;;6.78;1.52;;;;;;;;;;5349770;26;20069;-84
2024/04/15 10:39:21;;;;;;;8.63;1.70;;;;;;;;;;5349899;26;20006;-85
2024/04/15 10:41:48;;;;;;;5.57;1.63;;;;;;;;;;5366502;26;20001;-84
2024/04/15 10:44:13;;;;;;;7.78;1.80;;;;;;;;;;5361484;26;20004;-86
2024/04/15 10:46:45;;;;;;;3.70;1.45;;;;;;;;;;5373968;26;20011;-85
2024/04/15 10:49:11;;;;;;;9.40;1.50;;;;;;;;;;5348375;26;20446;-84
2024/04/15 10:51:37;;;;;;;7.43;1.75;;;;;;;;;;5380521;26;20004;-84
2024/04/15 10:54:04;;;;;;;5.18;1.60;;;;;;;;;;5362687;26;20008;-84
2024/04/15 10:56:29;;;;;;;5.97;2.00;;;;;;;;;;5377976;26;19996;-84
2024/04/15 10:58:55;;;;;;;7.00;1.70;;;;;;;;;;5360411;26;20029;-85
2024/04/15 11:01:21;;;;;;;3.85;1.30;;;;;;;;;;5370307;26;20339;-85
2024/04/15 11:03:47;;;;;;;4.60;1.40;;;;;;;;;;5341474;26;19996;-85
2024/04/15 11:06:13;;;;;;;6.75;1.60;;;;;;;;;;5369490;26;20013;-86
2024/04/15 11:08:39;;;;;;;5.68;1.90;;;;;;;;;;5380191;26;20480;-84
2024/04/15 11:11:08;;;;;;;6.38;2.17;;;;;;;;;;5375040;26;19996;-83
2024/04/15 11:13:33;;;;;;;3.80;1.60;;;;;;;;;;5374651;26;20001;-85
2024/04/15 11:15:59;;;;;;;8.23;1.55;;;;;;;;;;5346746;26;20015;-83
2024/04/15 11:18:25;;;;;;;7.78;1.50;;;;;;;;;;5347944;26;20023;-82
2024/04/15 11:21:03;;;;;;;4.65;1.35;;;;;;;;;;5342788;26;19997;-83
2024/04/15 11:23:29;;;;;;;7.05;1.60;;;;;;;;;;5379355;26;20012;-84
2024/04/15 11:25:58;;;;;;;4.93;1.50;;;;;;;;;;5376636;26;20339;-83
2024/04/15 11:28:24;;;;;;;6.57;1.38;;;;;;;;;;5348177;26;20011;-83
2024/04/15 11:30:51;;;;;;;4.55;1.30;;;;;;;;;;5351905;26;20074;-83
2024/04/15 11:33:19;;;;;;;5.85;1.52;;;;;;;;;;5352093;26;19996;-83
2024/04/15 11:35:54;;;;;;;6.05;1.30;;;;;;;;;;5349973;26;20015;-83
2024/04/15 11:38:21;;;;;;;3.97;1.45;;;;;;;;;;5351182;26;20001;-83
2024/04/15 11:40:48;;;;;;;4.38;1.40;;;;;;;;;;5379343;26;20008;-84
2024/04/15 11:43:13;;;;;;;6.38;1.60;;;;;;;;;;5350253;26;20012;-82
2024/04/15 11:45:52;;;;;;;7.20;1.52;;;;;;;;;;5349865;26;19997;-83
2024/04/15 11:48:18;;;;;;;4.22;1.52;;;;;;;;;;5350857;26;19996;-82
2024/04/15 11:50:43;;;;;;;7.50;1.83;;;;;;;;;;5381085;26;20018;-83
2024/04/15 11:53:09;;;;;;;4.65;1.52;;;;;;;;;;5381868;26;20012;-83
2024/04/15 11:55:35;;;;;;;7.05;1.85;;;;;;;;;;5348834;26;20015;-83
2024/04/15 11:58:00;;;;;;;6.05;1.50;;;;;;;;;;5381968;26;19996;-82
2024/04/15 12:00:26;;;;;;;6.10;1.63;;;;;;;;;;5381918;26;20004;-83
2024/04/15 12:02:51;;;;;;;8.27;1.80;;;;;;;;;;5362612;26;20089;-82
2024/04/15 12:05:19;;;;;;;6.15;2.20;;;;;;;;;;5382477;26;20536;-84
2024/04/15 12:07:47;;;;;;;5.53;1.60;;;;;;;;;;5351492;26;20592;-90
2024/04/15 12:10:12;;;;;;;5.05;1.50;;;;;;;;;;5372780;26;20393;-82
2024/04/15 12:12:38;;;;;;;7.35;1.90;;;;;;;;;;5381678;26;20004;-83
2024/04/15 12:15:05;;;;;;;6.65;1.63;;;;;;;;;;5379916;26;20004;-82
2024/04/15 12:17:31;;;;;;;6.75;1.60;;;;;;;;;;5348592;26;20028;-82
2024/04/15 12:19:56;;;;;;;6.18;1.90;;;;;;;;;;5380492;26;20011;-83
2024/04/15 12:22:21;;;;;;;6.25;1.90;;;;;;;;;;5349810;26;20428;-82
2024/04/15 12:24:47;;;;;;;5.35;1.50;;;;;;;;;;5349146;26;20011;-81
2024/04/15 12:27:13;;;;;;;5.05;1.98;;;;;;;;;;5348302;26;20419;-82
2024/04/15 12:29:38;;;;;;;5.35;1.52;;;;;;;;;;5381736;26;20387;-83
2024/04/15 12:32:04;;;;;;;5.75;1.70;;;;;;;;;;5344935;26;20016;-82
2024/04/15 12:34:32;;;;;;;6.35;1.70;;;;;;;;;;5306976;26;20048;-83
2024/04/15 12:36:58;;;;;;;5.40;1.77;;;;;;;;;;5335992;26;20001;-83
2024/04/15 12:39:23;;;;;;;5.40;2.08;;;;;;;;;;5366467;26;20454;-82
2024/04/15 12:41:49;;;;;;;6.22;2.00;;;;;;;;;;5341147;26;20533;-83
2024/04/15 12:44:14;;;;;;;5.40;1.90;;;;;;;;;;5340588;26;20004;-82
2024/04/15 12:46:39;;;;;;;6.18;2.20;;;;;;;;;;5341422;26;20518;-83
2024/04/15 12:49:07;;;;;;;5.13;1.88;;;;;;;;;;5375743;26;20004;-82
2024/04/15 12:51:33;;;;;;;7.22;2.38;;;;;;;;;;5345677;26;20004;-82
2024/04/15 12:53:58;;;;;;;7.25;2.13;;;;;;;;;;5348122;26;20440;-84
2024/04/15 12:56:24;;;;;;;4.78;1.92;;;;;;;;;;5335012;26;20482;-82
2024/04/15 12:58:49;;;;;;;4.63;2.00;;;;;;;;;;5375557;26;20346;-83
2024/04/15 13:01:14;;;;;;;6.32;2.25;;;;;;;;;;5375203;26;20008;-85
2024/04/15 13:03:40;;;;;;;4.82;2.10;;;;;;;;;;5339669;26;20016;-83
2024/04/15 13:06:07;;;;;;;6.05;2.25;;;;;;;;;;5344296;26;20008;-83
2024/04/15 13:08:32;;;;;;;6.43;2.72;;;;;;;;;;5344167;26;20438;-82
2024/04/15 13:10:58;;;;;;;3.35;1.65;;;;;;;;;;5334417;26;20044;-84
2024/04/15 13:13:23;;;;;;;2.75;0.60;;;;;;;;;;5372394;26;20561;-80
2024/04/15 13:15:49;;;;;;;2.20;0.38;;;;;;;;;;5338857;26;20004;-80
2024/04/15 13:18:14;;;;;;;0.95;0.30;;;;;;;;;;5344612;26;20361;-80
2024/04/15 13:20:40;;;;;;;0.63;0.30;;;;;;;;;;5339046;26;20052;-81
2024/04/15 13:23:05;;;;;;;0.50;0.20;;;;;;;;;;5345310;26;20004;-81
2024/04/15 13:25:31;;;;;;;0.90;0.20;;;;;;;;;;5364299;26;20356;-81
2024/04/15 13:27:57;;;;;;;1.15;0.40;;;;;;;;;;5341114;26;20454;-80
2024/04/15 13:30:23;;;;;;;1.35;0.28;;;;;;;;;;5339487;26;20343;-80
2024/04/15 13:32:49;;;;;;;1.55;0.40;;;;;;;;;;5343260;26;20004;-81
2024/04/15 13:35:14;;;;;;;2.15;0.40;;;;;;;;;;5343793;26;20015;-81
2024/04/15 13:37:40;;;;;;;1.15;0.30;;;;;;;;;;5367610;26;20069;-81
2024/04/15 13:40:06;;;;;;;0.80;0.30;;;;;;;;;;5342148;26;20564;-80
2024/04/15 13:42:32;;;;;;;1.08;0.30;;;;;;;;;;5333013;26;20448;-80
2024/04/15 13:44:57;;;;;;;1.58;0.40;;;;;;;;;;5343901;26;20008;-80
2024/04/15 13:47:23;;;;;;;1.05;0.30;;;;;;;;;;5328861;26;20074;-80
2024/04/15 13:49:48;;;;;;;1.73;0.40;;;;;;;;;;5342509;26;19992;-80
2024/04/15 13:52:14;;;;;;;2.05;0.70;;;;;;;;;;5335323;26;20008;-80
2024/04/15 13:54:39;;;;;;;1.55;0.57;;;;;;;;;;5377775;26;19992;-80
2024/04/15 13:57:05;;;;;;;2.05;0.43;;;;;;;;;;5368516;26;20016;-80
2024/04/15 13:59:30;;;;;;;1.60;0.60;;;;;;;;;;5329572;26;20436;-80
2024/04/15 14:01:56;;;;;;;1.75;0.50;;;;;;;;;;5344369;26;20012;-80
2024/04/15 14:04:22;;;;;;;5.00;0.50;;;;;;;;;;5348379;26;19997;-80
2024/04/15 14:06:48;;;;;;;4.22;0.70;;;;;;;;;;5330941;26;20070;-80
2024/04/15 14:09:14;;;;;;;3.72;0.60;;;;;;;;;;5340302;26;20044;-80
2024/04/15 14:11:42;;;;;;;1.58;0.43;;;;;;;;;;5368356;26;20007;-80
2024/04/15 14:14:08;;;;;;;3.13;0.73;;;;;;;;;;5376599;26;20007;-80
2024/04/15 14:16:33;;;;;;;3.13;0.80;;;;;;;;;;5347408;26;20458;-80
2024/04/15 14:18:59;;;;;;;2.65;0.52;;;;;;;;;;5344446;26;20413;-80
2024/04/15 14:21:25;;;;;;;2.22;0.60;;;;;;;;;;5343721;26;20000;-81
2024/04/15 14:23:50;;;;;;;3.85;0.60;;;;;;;;;;5366586;26;20070;-80
2024/04/15 14:26:16;;;;;;;1.45;0.60;;;;;;;;;;5354860;26;20524;-81
2024/04/15 14:28:41;;;;;;;5.55;1.08;;;;;;;;;;5344064;26;20000;-79
2024/04/15 14:31:07;;;;;;;5.55;1.42;;;;;;;;;;5362533;26;20439;-80
2024/04/15 14:33:32;;;;;;;3.80;0.80;;;;;;;;;;5366072;26;20028;-80